createdAt,value
2022-11-28T00:00:17.308Z,93.94
2022-11-28T00:01:41.564Z,93.92
2022-11-28T00:02:45.292Z,94.43
2022-11-28T00:03:50.682Z,94.32
2022-11-28T00:04:59.008Z,94.42
2022-11-28T00:06:08.033Z,93.96
2022-11-28T00:07:13.908Z,94.15
2022-11-28T00:08:26.242Z,94.24
2022-11-28T00:09:33.874Z,93.91
2022-11-28T00:10:46.154Z,93.96
2022-11-28T00:11:52.561Z,94.14
2022-11-28T00:12:59.667Z,94.23
2022-11-28T00:14:04.972Z,94.22
2022-11-28T00:15:12.610Z,93.98
2022-11-28T00:16:22.965Z,94.59
2022-11-28T00:17:28.794Z,94.42
2022-11-28T00:18:36.443Z,94.37
2022-11-28T00:19:44.169Z,94.45
2022-11-28T00:20:50.850Z,94.15
2022-11-28T00:22:02.458Z,94.38
2022-11-28T00:23:07.839Z,94.15
2022-11-28T00:24:14.482Z,94.01
2022-11-28T00:25:25.300Z,93.99
2022-11-28T00:26:41.658Z,94.35
2022-11-28T00:27:45.628Z,94.38
2022-11-28T00:28:51.417Z,94.45
2022-11-28T00:29:58.776Z,94.08
2022-11-28T00:31:08.255Z,94.02
2022-11-28T00:32:13.051Z,94.20
2022-11-28T00:33:19.447Z,94.17
2022-11-28T00:34:24.775Z,93.93
2022-11-28T00:35:35.842Z,94.20
2022-11-28T00:36:45.952Z,94.02
2022-11-28T00:37:51.545Z,93.96
2022-11-28T00:39:04.797Z,94.09
2022-11-28T00:40:13.896Z,93.84
2022-11-28T00:41:32.336Z,93.81
2022-11-28T00:42:47.192Z,93.55
2022-11-28T00:43:54.620Z,93.41
2022-11-28T00:45:00.693Z,93.51
2022-11-28T00:46:05.276Z,93.29
2022-11-28T00:47:09.805Z,93.34
2022-11-28T00:48:14.123Z,93.71
2022-11-28T00:49:21.728Z,93.19
2022-11-28T00:50:25.718Z,93.43
2022-11-28T00:51:34.204Z,93.33
2022-11-28T00:52:43.476Z,92.96
2022-11-28T00:53:59.789Z,93.26
2022-11-28T00:55:03.584Z,93.22
2022-11-28T00:56:21.407Z,93.17
2022-11-28T00:57:25.553Z,92.91
2022-11-28T00:58:35.329Z,92.96
2022-11-28T00:59:40.044Z,93.11
2022-11-28T01:00:49.007Z,92.75
2022-11-28T01:01:53.906Z,92.98
2022-11-28T01:03:00.176Z,93.03
2022-11-28T01:04:09.826Z,92.94
2022-11-28T01:05:13.451Z,92.96
2022-11-28T01:06:35.677Z,92.99
2022-11-28T01:07:42.961Z,92.91
2022-11-28T01:08:48.180Z,92.62
2022-11-28T01:09:52.350Z,92.71
2022-11-28T01:10:56.731Z,92.73
2022-11-28T01:12:03.523Z,92.72
2022-11-28T01:13:11.851Z,92.92
2022-11-28T01:14:26.830Z,92.61
2022-11-28T01:15:30.543Z,92.69
2022-11-28T01:16:36.038Z,92.93
2022-11-28T01:17:42.172Z,92.97
2022-11-28T01:18:50.389Z,92.91
2022-11-28T01:19:58.412Z,92.65
2022-11-28T01:21:07.839Z,92.88
2022-11-28T01:22:23.617Z,92.71
2022-11-28T01:23:28.361Z,92.86
2022-11-28T01:24:36.054Z,92.80
2022-11-28T01:25:40.472Z,92.86
2022-11-28T01:26:45.320Z,92.95
2022-11-28T01:27:49.566Z,92.64
2022-11-28T01:28:53.428Z,92.85
2022-11-28T01:29:56.965Z,92.70
2022-11-28T01:31:07.907Z,92.56
2022-11-28T01:32:11.634Z,92.76
2022-11-28T01:33:15.324Z,92.66
2022-11-28T01:34:21.578Z,92.63
2022-11-28T01:35:25.231Z,92.54
2022-11-28T01:36:29.253Z,92.56
2022-11-28T01:37:32.810Z,92.63
2022-11-28T01:38:36.437Z,92.83
2022-11-28T01:39:40.744Z,92.69
2022-11-28T01:40:47.220Z,92.59
2022-11-28T01:41:52.440Z,92.64
2022-11-28T01:42:59.846Z,92.87
2022-11-28T01:44:32.485Z,92.55
2022-11-28T01:45:42.138Z,92.89
2022-11-28T01:46:45.808Z,92.65
2022-11-28T01:47:56.246Z,92.75
2022-11-28T01:49:22.267Z,92.87
2022-11-28T01:50:30.489Z,93.39
2022-11-28T01:51:44.985Z,93.43
2022-11-28T01:53:02.344Z,93.59
2022-11-28T01:54:08.918Z,93.52
2022-11-28T01:55:21.341Z,93.35
2022-11-28T01:56:43.786Z,93.45
2022-11-28T01:57:54.357Z,93.62
2022-11-28T01:59:08.854Z,93.61
2022-11-28T02:00:18.153Z,93.14
2022-11-28T02:01:27.981Z,93.36
2022-11-28T02:02:51.903Z,93.04
2022-11-28T02:03:59.446Z,93.00
2022-11-28T02:05:05.157Z,93.16
2022-11-28T02:06:12.967Z,93.11
2022-11-28T02:07:22.349Z,93.04
2022-11-28T02:08:35.330Z,93.14
2022-11-28T02:09:39.936Z,93.39
2022-11-28T02:11:15.331Z,93.00
2022-11-28T02:13:08.549Z,93.09
2022-11-28T02:14:35.774Z,93.52
2022-11-28T02:16:29.373Z,93.50
2022-11-28T02:17:54.992Z,93.92
2022-11-28T02:19:34.898Z,93.97
2022-11-28T02:21:19.242Z,94.14
2022-11-28T02:23:13.203Z,94.14
2022-11-28T02:24:30.081Z,93.85
2022-11-28T02:26:08.521Z,94.03
2022-11-28T02:28:08.998Z,94.21
2022-11-28T02:29:53.169Z,94.48
2022-11-28T02:31:09.732Z,94.49
2022-11-28T02:32:37.120Z,94.86
2022-11-28T02:34:28.538Z,95.61
2022-11-28T02:35:47.475Z,95.50
2022-11-28T02:37:07.041Z,95.42
2022-11-28T02:39:10.356Z,95.21
2022-11-28T02:40:55.315Z,95.14
2022-11-28T02:42:28.922Z,94.93
2022-11-28T02:44:04.229Z,94.66
2022-11-28T02:45:20.117Z,94.81
2022-11-28T02:46:47.163Z,94.68
2022-11-28T02:48:06.208Z,94.55
2022-11-28T02:49:24.413Z,94.47
2022-11-28T02:50:54.565Z,94.40
2022-11-28T02:52:15.724Z,94.29
2022-11-28T02:53:28.757Z,94.31
2022-11-28T02:54:35.754Z,94.18
2022-11-28T02:55:45.791Z,94.29
2022-11-28T02:56:56.741Z,94.43
2022-11-28T02:58:22.364Z,94.05
2022-11-28T02:59:56.270Z,94.29
2022-11-28T03:01:02.384Z,94.33
2022-11-28T03:02:23.129Z,94.23
2022-11-28T03:03:45.381Z,94.38
2022-11-28T03:05:26.006Z,93.92
2022-11-28T03:07:13.559Z,94.25
2022-11-28T03:09:00.021Z,94.36
2022-11-28T03:10:23.968Z,94.32
2022-11-28T03:12:13.842Z,94.49
2022-11-28T03:13:53.680Z,94.79
2022-11-28T03:15:07.615Z,94.81
2022-11-28T03:16:24.751Z,94.55
2022-11-28T03:17:47.201Z,94.73
2022-11-28T03:19:17.131Z,94.75
2022-11-28T03:20:39.527Z,94.54
2022-11-28T03:24:12.044Z,95.10
2022-11-28T03:26:02.291Z,94.82
2022-11-28T03:27:35.213Z,94.82
2022-11-28T03:29:07.960Z,95.05
2022-11-28T03:30:30.040Z,94.59
2022-11-28T03:31:42.400Z,94.54
2022-11-28T03:32:56.538Z,94.26
2022-11-28T03:34:21.152Z,94.60
2022-11-28T03:35:37.612Z,94.35
2022-11-28T03:36:50.228Z,94.12
2022-11-28T03:38:30.229Z,94.49
2022-11-28T03:39:42.803Z,94.31
2022-11-28T03:41:08.143Z,94.45
2022-11-28T03:42:30.032Z,94.53
2022-11-28T03:43:49.268Z,94.22
2022-11-28T03:45:21.425Z,94.80
2022-11-28T03:46:36.027Z,94.46
2022-11-28T03:47:49.499Z,94.65
2022-11-28T03:49:00.767Z,94.57
2022-11-28T03:50:20.355Z,94.50
2022-11-28T03:51:44.222Z,94.32
2022-11-28T03:53:05.683Z,94.50
2022-11-28T03:54:22.175Z,94.50
2022-11-28T03:55:52.953Z,94.35
2022-11-28T03:57:08.558Z,94.44
2022-11-28T03:58:40.469Z,94.22
2022-11-28T03:59:56.074Z,94.59
2022-11-28T04:01:18.817Z,94.32
2022-11-28T04:02:56.827Z,93.95
2022-11-28T04:04:45.928Z,94.48
2022-11-28T04:06:07.585Z,94.32
2022-11-28T04:07:43.955Z,94.25
2022-11-28T04:09:14.053Z,94.73
2022-11-28T04:10:51.487Z,94.72
2022-11-28T04:12:04.873Z,95.11
2022-11-28T04:13:37.514Z,94.98
2022-11-28T04:15:00.253Z,94.96
2022-11-28T04:16:42.747Z,94.69
2022-11-28T04:18:20.357Z,94.79
2022-11-28T04:19:43.202Z,94.98
2022-11-28T04:21:20.071Z,94.87
2022-11-28T04:22:39.520Z,95.09
2022-11-28T04:23:51.748Z,94.86
2022-11-28T04:25:06.548Z,94.87
2022-11-28T04:26:27.297Z,94.79
2022-11-28T04:27:43.123Z,94.99
2022-11-28T04:28:54.515Z,94.86
2022-11-28T04:30:11.621Z,94.64
2022-11-28T04:31:25.825Z,94.53
2022-11-28T04:32:42.140Z,94.48
2022-11-28T04:33:58.218Z,94.40
2022-11-28T04:35:15.142Z,94.50
2022-11-28T04:36:25.148Z,94.53
2022-11-28T04:37:36.707Z,94.20
2022-11-28T04:38:56.896Z,94.55
2022-11-28T04:40:12.591Z,94.00
2022-11-28T04:41:29.209Z,93.65
2022-11-28T04:42:48.785Z,93.88
2022-11-28T04:44:41.340Z,93.54
2022-11-28T04:45:56.258Z,93.63
2022-11-28T04:47:02.651Z,93.34
2022-11-28T04:48:08.486Z,93.34
2022-11-28T04:49:14.295Z,93.37
2022-11-28T04:50:28.855Z,93.45
2022-11-28T04:52:03.824Z,93.11
2022-11-28T04:53:57.711Z,93.25
2022-11-28T04:55:17.318Z,93.29
2022-11-28T04:56:41.936Z,93.27
2022-11-28T04:58:16.923Z,93.60
2022-11-28T04:59:33.812Z,93.35
2022-11-28T05:00:41.995Z,93.38
2022-11-28T05:01:51.173Z,93.19
2022-11-28T05:02:58.012Z,93.02
2022-11-28T05:04:04.328Z,93.03
2022-11-28T05:05:32.897Z,92.96
2022-11-28T05:06:38.815Z,92.91
2022-11-28T05:07:48.960Z,92.86
2022-11-28T05:09:07.258Z,93.38
2022-11-28T05:10:18.111Z,93.50
2022-11-28T05:11:24.008Z,93.28
2022-11-28T05:12:31.558Z,93.19
2022-11-28T05:13:35.707Z,93.06
2022-11-28T05:14:51.645Z,92.78
2022-11-28T05:16:05.982Z,93.01
2022-11-28T05:17:14.839Z,92.84
2022-11-28T05:18:23.975Z,92.90
2022-11-28T05:19:30.056Z,92.75
2022-11-28T05:20:37.754Z,92.56
2022-11-28T05:21:45.237Z,92.72
2022-11-28T05:22:51.830Z,92.48
2022-11-28T05:24:02.869Z,92.79
2022-11-28T05:25:12.372Z,92.38
2022-11-28T05:26:22.204Z,92.40
2022-11-28T05:27:31.609Z,92.59
2022-11-28T05:28:38.066Z,92.37
2022-11-28T05:29:52.315Z,92.52
2022-11-28T05:31:02.412Z,92.53
2022-11-28T05:32:09.816Z,92.85
2022-11-28T05:33:15.351Z,92.50
2022-11-28T05:34:25.670Z,92.35
2022-11-28T05:35:32.325Z,92.13
2022-11-28T05:36:36.126Z,92.23
2022-11-28T05:37:47.019Z,92.35
2022-11-28T05:38:55.711Z,92.13
2022-11-28T05:40:04.204Z,92.33
2022-11-28T05:41:23.027Z,92.48
2022-11-28T05:42:52.687Z,92.32
2022-11-28T05:44:01.395Z,92.47
2022-11-28T05:45:15.905Z,92.66
2022-11-28T05:46:29.004Z,92.45
2022-11-28T05:47:41.418Z,92.74
2022-11-28T05:48:51.589Z,92.60
2022-11-28T05:50:00.889Z,92.33
2022-11-28T05:51:08.530Z,92.07
2022-11-28T05:52:17.124Z,92.26
2022-11-28T05:53:28.968Z,92.63
2022-11-28T05:54:36.555Z,92.38
2022-11-28T05:55:44.893Z,92.33
2022-11-28T05:56:52.397Z,92.56
2022-11-28T05:58:06.640Z,92.53
2022-11-28T05:59:16.660Z,92.42
2022-11-28T06:00:24.488Z,92.27
2022-11-28T06:01:33.321Z,92.47
2022-11-28T06:02:37.149Z,92.34
2022-11-28T06:03:41.792Z,92.15
2022-11-28T06:04:45.306Z,91.93
2022-11-28T06:05:49.027Z,92.13
2022-11-28T06:06:53.162Z,91.93
2022-11-28T06:07:57.297Z,92.01
2022-11-28T06:09:01.990Z,92.17
2022-11-28T06:10:07.347Z,92.17
2022-11-28T06:11:12.887Z,92.24
2022-11-28T06:12:17.996Z,92.29
2022-11-28T06:13:35.808Z,92.41
2022-11-28T06:14:48.007Z,92.39
2022-11-28T06:16:00.532Z,91.99
2022-11-28T06:17:04.928Z,91.93
2022-11-28T06:18:25.991Z,91.98
2022-11-28T06:19:38.828Z,91.93
2022-11-28T06:20:46.338Z,92.40
2022-11-28T06:21:51.018Z,92.01
2022-11-28T06:22:57.367Z,92.29
2022-11-28T06:24:03.443Z,92.24
2022-11-28T06:25:11.092Z,92.12
2022-11-28T06:26:26.377Z,91.89
2022-11-28T06:27:46.591Z,91.86
2022-11-28T06:28:51.210Z,91.67
2022-11-28T06:30:00.626Z,91.78
2022-11-28T06:31:22.739Z,91.58
2022-11-28T06:32:31.674Z,91.27
2022-11-28T06:33:40.050Z,91.38
2022-11-28T06:34:50.327Z,91.56
2022-11-28T06:36:05.649Z,91.56
2022-11-28T06:37:13.919Z,91.79
2022-11-28T06:38:22.677Z,91.34
2022-11-28T06:39:30.543Z,91.40
2022-11-28T06:41:08.291Z,91.73
2022-11-28T06:42:17.727Z,91.93
2022-11-28T06:43:46.869Z,91.75
2022-11-28T06:45:00.393Z,91.58
2022-11-28T06:46:05.887Z,91.52
2022-11-28T06:47:15.504Z,91.44
2022-11-28T06:48:33.382Z,91.51
2022-11-28T06:49:37.395Z,91.56
2022-11-28T06:50:58.933Z,91.53
2022-11-28T06:52:09.508Z,91.57
2022-11-28T06:53:28.658Z,91.43
2022-11-28T06:54:37.835Z,91.44
2022-11-28T06:55:49.717Z,91.44
2022-11-28T06:56:56.522Z,91.59
2022-11-28T06:58:19.228Z,91.47
2022-11-28T06:59:33.854Z,91.68
2022-11-28T07:00:43.993Z,91.67
2022-11-28T07:01:50.494Z,91.42
2022-11-28T07:03:00.128Z,91.58
2022-11-28T07:05:41.708Z,91.35
2022-11-28T07:06:48.194Z,91.14
2022-11-28T07:07:54.531Z,91.11
2022-11-28T07:09:04.455Z,91.22
2022-11-28T07:10:28.860Z,91.04
2022-11-28T07:11:44.485Z,91.25
2022-11-28T07:13:05.133Z,91.35
2022-11-28T07:14:18.196Z,91.40
2022-11-28T07:15:29.075Z,91.45
2022-11-28T07:16:38.596Z,91.23
2022-11-28T07:17:49.779Z,91.08
2022-11-28T07:19:02.299Z,90.80
2022-11-28T07:20:09.951Z,90.72
2022-11-28T07:21:15.025Z,91.17
2022-11-28T07:22:24.129Z,91.19
2022-11-28T07:23:28.859Z,90.74
2022-11-28T07:24:40.579Z,90.79
2022-11-28T07:26:04.476Z,90.86
2022-11-28T07:27:09.018Z,90.77
2022-11-28T07:28:21.903Z,90.78
2022-11-28T07:29:39.244Z,91.01
2022-11-28T07:31:18.921Z,90.86
2022-11-28T07:32:29.330Z,90.58
2022-11-28T07:33:55.100Z,90.80
2022-11-28T07:35:12.702Z,90.75
2022-11-28T07:37:53.609Z,90.61
2022-11-28T07:39:24.358Z,90.73
2022-11-28T07:40:33.746Z,90.63
2022-11-28T07:41:41.967Z,90.37
2022-11-28T07:42:52.708Z,90.51
2022-11-28T07:44:07.185Z,90.42
2022-11-28T07:45:14.267Z,89.99
2022-11-28T07:46:32.298Z,90.24
2022-11-28T07:47:44.077Z,90.21
2022-11-28T07:48:57.775Z,90.07
2022-11-28T07:50:05.979Z,90.03
2022-11-28T07:52:39.692Z,89.48
2022-11-28T07:53:50.618Z,89.79
2022-11-28T07:55:05.427Z,89.95
2022-11-28T07:56:17.322Z,89.76
2022-11-28T07:57:45.760Z,89.59
2022-11-28T07:58:52.453Z,89.83
2022-11-28T08:00:07.796Z,89.73
2022-11-28T08:01:31.329Z,89.83
2022-11-28T08:02:35.238Z,89.65
2022-11-28T08:03:39.287Z,89.57
2022-11-28T08:04:48.602Z,89.39
2022-11-28T08:06:03.055Z,89.22
2022-11-28T08:07:07.221Z,89.30
2022-11-28T08:08:10.901Z,89.31
2022-11-28T08:09:15.044Z,89.41
2022-11-28T08:10:20.287Z,89.15
2022-11-28T08:11:25.435Z,89.03
2022-11-28T08:12:31.728Z,89.04
2022-11-28T08:13:39.327Z,89.24
2022-11-28T08:14:54.717Z,89.06
2022-11-28T08:16:13.384Z,88.62
2022-11-28T08:17:19.993Z,88.28
2022-11-28T08:18:25.637Z,88.39
2022-11-28T08:19:35.045Z,88.40
2022-11-28T08:20:41.924Z,88.50
2022-11-28T08:21:47.920Z,88.12
2022-11-28T08:22:56.955Z,88.30
2022-11-28T08:24:23.634Z,87.98
2022-11-28T08:25:36.034Z,88.16
2022-11-28T08:26:44.287Z,88.12
2022-11-28T08:27:50.121Z,88.17
2022-11-28T08:28:59.079Z,87.83
2022-11-28T08:30:15.084Z,87.99
2022-11-28T08:31:43.591Z,88.17
2022-11-28T08:32:56.865Z,88.19
2022-11-28T08:34:10.996Z,88.20
2022-11-28T08:35:22.587Z,87.53
2022-11-28T08:36:32.334Z,87.56
2022-11-28T08:37:39.172Z,87.63
2022-11-28T08:39:03.491Z,87.62
2022-11-28T08:40:17.518Z,87.41
2022-11-28T08:41:27.068Z,87.40
2022-11-28T08:42:36.882Z,87.16
2022-11-28T08:43:49.210Z,87.08
2022-11-28T08:45:00.336Z,87.36
2022-11-28T08:46:37.192Z,87.09
2022-11-28T08:47:44.599Z,86.98
2022-11-28T08:48:53.089Z,87.16
2022-11-28T08:50:01.337Z,87.38
2022-11-28T08:51:23.182Z,87.49
2022-11-28T08:52:37.569Z,87.63
2022-11-28T08:53:49.330Z,87.41
2022-11-28T08:54:58.236Z,87.71
2022-11-28T08:56:04.275Z,87.38
2022-11-28T08:57:09.776Z,87.86
2022-11-28T08:58:15.795Z,87.48
2022-11-28T08:59:25.021Z,87.41
2022-11-28T09:00:48.234Z,87.36
2022-11-28T09:01:57.886Z,87.38
2022-11-28T09:03:03.878Z,87.49
2022-11-28T09:04:16.439Z,87.48
2022-11-28T09:05:24.116Z,87.83
2022-11-28T09:06:28.907Z,87.96
2022-11-28T09:07:36.929Z,87.67
2022-11-28T09:08:43.908Z,87.95
2022-11-28T09:09:51.027Z,87.66
2022-11-28T09:10:58.151Z,88.02
2022-11-28T09:12:01.717Z,87.57
2022-11-28T09:13:11.937Z,87.66
2022-11-28T09:14:27.301Z,87.17
2022-11-28T09:15:38.115Z,87.37
2022-11-28T09:16:44.141Z,87.10
2022-11-28T09:17:53.704Z,87.46
2022-11-28T09:19:01.756Z,87.62
2022-11-28T09:20:07.094Z,87.59
2022-11-28T09:21:14.613Z,87.50
2022-11-28T09:23:53.326Z,86.91
2022-11-28T09:25:00.366Z,86.98
2022-11-28T09:26:21.271Z,86.84
2022-11-28T09:27:26.814Z,86.34
2022-11-28T09:28:41.831Z,86.28
2022-11-28T09:29:57.405Z,85.79
2022-11-28T09:31:07.043Z,85.06
2022-11-28T09:32:12.808Z,85.03
2022-11-28T09:33:20.528Z,84.91
2022-11-28T09:34:25.272Z,85.08
2022-11-28T09:35:41.278Z,84.82
2022-11-28T09:36:45.865Z,85.05
2022-11-28T09:37:54.158Z,84.70
2022-11-28T09:39:01.967Z,84.36
2022-11-28T09:40:22.185Z,84.76
2022-11-28T09:41:34.660Z,84.42
2022-11-28T09:42:47.062Z,84.31
2022-11-28T09:43:55.174Z,84.48
2022-11-28T09:45:24.828Z,83.89
2022-11-28T09:46:35.265Z,84.40
2022-11-28T09:47:48.798Z,84.75
2022-11-28T09:49:02.333Z,83.80
2022-11-28T09:50:28.129Z,84.13
2022-11-28T09:52:08.258Z,84.13
2022-11-28T09:53:26.440Z,84.02
2022-11-28T09:55:25.230Z,83.91
2022-11-28T09:56:29.899Z,83.57
2022-11-28T09:57:56.508Z,83.15
2022-11-28T09:59:19.866Z,83.40
2022-11-28T10:01:08.098Z,83.54
2022-11-28T10:02:41.837Z,82.92
2022-11-28T10:04:43.101Z,83.42
2022-11-28T10:06:24.316Z,83.30
2022-11-28T10:07:43.722Z,82.90
2022-11-28T10:09:25.772Z,82.85
2022-11-28T10:11:16.473Z,82.65
2022-11-28T10:13:07.061Z,82.45
2022-11-28T10:14:44.279Z,82.08
2022-11-28T10:16:09.293Z,82.01
2022-11-28T10:17:44.864Z,81.67
2022-11-28T10:19:52.844Z,81.47
2022-11-28T10:21:07.158Z,80.28
2022-11-28T10:22:50.376Z,80.47
2022-11-28T10:24:22.778Z,80.18
2022-11-28T10:25:46.535Z,79.97
2022-11-28T10:27:10.557Z,80.33
2022-11-28T10:28:35.563Z,80.37
2022-11-28T10:30:08.106Z,79.86
2022-11-28T10:31:45.518Z,79.04
2022-11-28T10:33:26.190Z,78.94
2022-11-28T10:34:54.374Z,79.66
2022-11-28T10:36:02.060Z,79.20
2022-11-28T10:37:32.378Z,79.03
2022-11-28T10:38:37.043Z,79.51
2022-11-28T10:39:49.002Z,79.02
2022-11-28T10:41:24.432Z,79.08
2022-11-28T10:42:42.290Z,78.79
2022-11-28T10:44:03.667Z,78.30
2022-11-28T10:45:25.128Z,78.52
2022-11-28T10:46:53.366Z,79.36
2022-11-28T10:49:00.747Z,78.87
2022-11-28T10:50:41.988Z,78.54
2022-11-28T10:52:02.395Z,78.20
2022-11-28T10:53:45.702Z,77.60
2022-11-28T10:55:31.895Z,77.88
2022-11-28T10:57:06.445Z,77.02
2022-11-28T10:59:02.810Z,76.44
2022-11-28T11:00:25.149Z,76.43
2022-11-28T11:01:49.803Z,76.47
2022-11-28T11:03:15.091Z,76.36
2022-11-28T11:04:33.677Z,76.28
2022-11-28T11:05:47.602Z,76.42
2022-11-28T11:07:31.932Z,76.17
2022-11-28T11:08:48.642Z,76.33
2022-11-28T11:10:24.744Z,76.67
2022-11-28T11:11:49.760Z,76.45
2022-11-28T11:12:54.364Z,76.62
2022-11-28T11:14:30.242Z,76.72
2022-11-28T11:15:58.109Z,76.95
2022-11-28T11:17:06.322Z,77.28
2022-11-28T11:18:40.550Z,76.68
2022-11-28T11:19:54.909Z,76.97
2022-11-28T11:21:30.633Z,76.87
2022-11-28T11:22:36.418Z,76.60
2022-11-28T11:23:48.725Z,76.82
2022-11-28T11:25:23.582Z,76.74
2022-11-28T11:26:45.963Z,76.61
2022-11-28T11:27:57.461Z,76.56
2022-11-28T11:29:06.325Z,76.45
2022-11-28T11:30:35.329Z,75.88
2022-11-28T11:31:50.626Z,76.22
2022-11-28T11:33:00.621Z,76.39
2022-11-28T11:34:18.733Z,75.81
2022-11-28T11:35:52.835Z,76.00
2022-11-28T11:37:28.332Z,75.54
2022-11-28T11:38:38.804Z,74.83
2022-11-28T11:39:53.707Z,75.05
2022-11-28T11:41:33.336Z,74.95
2022-11-28T11:42:58.833Z,74.76
2022-11-28T11:44:29.878Z,75.08
2022-11-28T11:45:35.807Z,75.24
2022-11-28T11:47:09.626Z,74.92
2022-11-28T11:48:16.706Z,74.84
2022-11-28T11:50:59.448Z,75.55
2022-11-28T11:52:17.252Z,75.79
2022-11-28T11:53:26.026Z,76.16
2022-11-28T11:54:33.457Z,76.09
2022-11-28T11:56:01.370Z,76.12
2022-11-28T11:57:32.714Z,75.90
2022-11-28T11:58:55.622Z,76.40
2022-11-28T12:00:37.461Z,76.60
2022-11-28T12:01:46.938Z,76.45
2022-11-28T12:03:49.185Z,76.35
2022-11-28T12:05:15.984Z,76.13
2022-11-28T12:06:41.929Z,76.58
2022-11-28T12:08:46.760Z,76.44
2022-11-28T12:10:01.704Z,76.17
2022-11-28T12:11:45.441Z,76.14
2022-11-28T12:12:50.900Z,76.08
2022-11-28T12:13:57.429Z,76.10
2022-11-28T12:15:01.115Z,76.54
2022-11-28T12:16:48.344Z,76.59
2022-11-28T12:18:12.949Z,76.28
2022-11-28T12:19:59.355Z,76.46
2022-11-28T12:21:22.314Z,76.45
2022-11-28T12:22:46.526Z,76.50
2022-11-28T12:24:21.242Z,76.46
2022-11-28T12:25:56.077Z,76.54
2022-11-28T12:27:24.970Z,76.22
2022-11-28T12:29:09.380Z,75.93
2022-11-28T12:30:43.455Z,76.04
2022-11-28T12:32:36.764Z,76.19
2022-11-28T12:34:05.526Z,75.63
2022-11-28T12:35:43.389Z,75.42
2022-11-28T12:37:41.982Z,75.54
2022-11-28T12:39:15.318Z,75.63
2022-11-28T12:40:42.844Z,74.92
2022-11-28T12:42:12.050Z,75.27
2022-11-28T12:43:29.187Z,75.47
2022-11-28T12:45:02.919Z,75.40
2022-11-28T12:46:18.041Z,75.09
2022-11-28T12:48:10.595Z,74.80
2022-11-28T12:49:44.580Z,74.85
2022-11-28T12:51:24.275Z,74.17
2022-11-28T12:53:07.184Z,74.20
2022-11-28T12:54:49.435Z,74.18
2022-11-28T12:56:37.126Z,73.57
2022-11-28T12:58:14.626Z,73.27
2022-11-28T12:59:53.707Z,73.66
2022-11-28T13:01:32.505Z,73.16
2022-11-28T13:02:59.752Z,73.09
2022-11-28T13:04:55.910Z,73.22
2022-11-28T13:06:24.205Z,73.38
2022-11-28T13:08:08.596Z,73.14
2022-11-28T13:09:38.022Z,72.95
2022-11-28T13:11:53.583Z,73.14
2022-11-28T13:13:40.994Z,72.95
2022-11-28T13:15:06.526Z,73.29
2022-11-28T13:16:36.010Z,72.55
2022-11-28T13:18:09.230Z,72.62
2022-11-28T13:20:06.521Z,72.37
2022-11-28T13:21:44.016Z,73.18
2022-11-28T13:23:49.450Z,73.43
2022-11-28T13:25:22.934Z,73.47
2022-11-28T13:27:09.239Z,73.39
2022-11-28T13:28:54.254Z,73.85
2022-11-28T13:30:27.427Z,73.80
2022-11-28T13:32:10.310Z,74.03
2022-11-28T13:34:03.204Z,74.28
2022-11-28T13:35:23.571Z,74.18
2022-11-28T13:38:50.282Z,73.67
2022-11-28T13:40:37.035Z,73.83
2022-11-28T13:42:44.254Z,73.47
2022-11-28T13:44:20.363Z,73.53
2022-11-28T13:47:49.658Z,74.04
2022-11-28T13:49:34.007Z,73.99
2022-11-28T13:51:11.868Z,74.03
2022-11-28T13:52:25.687Z,74.84
2022-11-28T13:54:44.272Z,74.87
2022-11-28T13:56:30.660Z,74.65
2022-11-28T13:57:49.277Z,74.76
2022-11-28T13:59:02.407Z,74.80
2022-11-28T14:00:31.807Z,74.64
2022-11-28T14:02:02.996Z,74.76
2022-11-28T14:03:29.448Z,74.74
2022-11-28T14:04:48.493Z,74.72
2022-11-28T14:06:07.277Z,75.25
2022-11-28T14:07:40.753Z,75.25
2022-11-28T14:08:59.328Z,75.42
2022-11-28T14:13:23.148Z,75.21
2022-11-28T14:15:10.233Z,75.43
2022-11-28T14:17:16.887Z,75.61
2022-11-28T14:18:58.248Z,75.67
2022-11-28T14:20:41.724Z,75.58
2022-11-28T14:22:41.840Z,75.25
2022-11-28T14:24:32.918Z,75.66
2022-11-28T14:25:55.657Z,75.93
2022-11-28T14:27:06.552Z,76.21
2022-11-28T14:28:42.781Z,76.08
2022-11-28T14:29:57.357Z,76.14
2022-11-28T14:31:55.214Z,76.02
2022-11-28T14:35:00.233Z,75.94
2022-11-28T14:36:36.787Z,75.74
2022-11-28T14:37:59.482Z,75.89
2022-11-28T14:39:34.155Z,75.98
2022-11-28T14:40:58.321Z,76.26
2022-11-28T14:42:30.544Z,76.28
2022-11-28T14:43:49.051Z,76.62
2022-11-28T14:45:51.196Z,76.77
2022-11-28T14:46:33.892Z,76.83
2022-11-28T14:47:42.861Z,77.22
2022-11-28T14:49:18.550Z,77.10
2022-11-28T14:50:22.164Z,77.46
2022-11-28T14:51:47.733Z,77.35
2022-11-28T14:53:32.350Z,77.53
2022-11-28T14:54:42.933Z,77.97
2022-11-28T14:55:46.896Z,78.02
2022-11-28T14:56:58.234Z,78.25
2022-11-28T14:58:05.385Z,77.99
2022-11-28T14:59:12.382Z,78.27
2022-11-28T15:00:31.750Z,78.25
2022-11-28T15:01:57.118Z,78.04
2022-11-28T15:03:44.543Z,78.29
2022-11-28T15:05:23.364Z,78.33
2022-11-28T15:06:39.852Z,78.25
2022-11-28T15:08:27.087Z,78.59
2022-11-28T15:10:07.455Z,78.86
2022-11-28T15:11:37.733Z,79.59
2022-11-28T15:13:21.951Z,79.31
2022-11-28T15:14:39.085Z,79.33
2022-11-28T15:15:57.059Z,79.73
2022-11-28T15:17:16.582Z,79.72
2022-11-28T15:18:31.130Z,79.67
2022-11-28T15:20:20.361Z,79.75
2022-11-28T15:21:27.138Z,79.30
2022-11-28T15:22:44.506Z,79.70
2022-11-28T15:23:57.574Z,79.38
2022-11-28T15:25:38.009Z,79.84
2022-11-28T15:26:42.203Z,79.95
2022-11-28T15:27:46.637Z,79.64
2022-11-28T15:29:29.425Z,79.82
2022-11-28T15:30:37.604Z,79.98
2022-11-28T15:31:52.040Z,80.17
2022-11-28T15:33:13.375Z,80.13
2022-11-28T15:34:45.734Z,79.98
2022-11-28T15:36:16.974Z,80.09
2022-11-28T15:37:38.450Z,80.15
2022-11-28T15:38:49.671Z,80.15
2022-11-28T15:40:08.453Z,79.87
2022-11-28T15:41:13.056Z,79.97
2022-11-28T15:43:12.947Z,80.36
2022-11-28T15:44:19.443Z,80.52
2022-11-28T15:45:43.321Z,80.32
2022-11-28T15:46:51.188Z,80.70
2022-11-28T15:47:58.693Z,80.25
2022-11-28T15:49:24.022Z,80.49
2022-11-28T15:51:04.421Z,80.61
2022-11-28T15:52:25.960Z,80.39
2022-11-28T15:53:32.222Z,80.40
2022-11-28T15:54:46.819Z,80.72
2022-11-28T15:56:16.441Z,80.48
2022-11-28T15:57:29.358Z,80.62
2022-11-28T15:58:45.774Z,80.67
2022-11-28T15:59:50.907Z,80.88
2022-11-28T16:01:21.253Z,80.93
2022-11-28T16:02:36.577Z,80.77
2022-11-28T16:04:13.574Z,80.82
2022-11-28T16:05:23.310Z,81.16
2022-11-28T16:06:38.588Z,80.94
2022-11-28T16:07:44.456Z,81.47
2022-11-28T16:08:55.696Z,81.38
2022-11-28T16:10:05.636Z,81.60
2022-11-28T16:11:11.307Z,81.62
2022-11-28T16:12:16.160Z,81.84
2022-11-28T16:13:30.722Z,81.74
2022-11-28T16:14:45.670Z,81.73
2022-11-28T16:15:56.188Z,81.90
2022-11-28T16:17:23.616Z,82.10
2022-11-28T16:18:31.626Z,81.88
2022-11-28T16:19:41.111Z,82.18
2022-11-28T16:20:53.942Z,82.20
2022-11-28T16:22:25.254Z,82.01
2022-11-28T16:23:39.723Z,82.15
2022-11-28T16:25:26.493Z,82.15
2022-11-28T16:26:33.829Z,82.17
2022-11-28T16:27:46.264Z,82.38
2022-11-28T16:29:10.026Z,81.96
2022-11-28T16:30:52.047Z,82.29
2022-11-28T16:32:28.113Z,82.31
2022-11-28T16:33:50.225Z,82.39
2022-11-28T16:35:05.359Z,82.31
2022-11-28T16:36:37.214Z,82.21
2022-11-28T16:37:45.232Z,82.52
2022-11-28T16:39:10.159Z,82.39
2022-11-28T16:40:28.062Z,82.21
2022-11-28T16:41:32.366Z,82.25
2022-11-28T16:42:39.667Z,82.36
2022-11-28T16:43:59.167Z,82.25
2022-11-28T16:45:26.720Z,82.19
2022-11-28T16:46:40.279Z,82.17
2022-11-28T16:47:52.810Z,82.44
2022-11-28T16:49:00.920Z,82.27
2022-11-28T16:50:18.406Z,82.68
2022-11-28T16:51:23.769Z,82.61
2022-11-28T16:52:46.514Z,82.61
2022-11-28T16:54:02.672Z,82.53
2022-11-28T16:55:41.685Z,82.70
2022-11-28T16:57:12.291Z,82.71
2022-11-28T16:58:27.054Z,82.92
2022-11-28T16:59:31.873Z,82.93
2022-11-28T17:00:44.962Z,82.80
2022-11-28T17:01:54.842Z,83.17
2022-11-28T17:03:04.396Z,83.17
2022-11-28T17:04:29.943Z,83.45
2022-11-28T17:05:37.458Z,83.40
2022-11-28T17:07:05.753Z,83.12
2022-11-28T17:08:12.882Z,83.21
2022-11-28T17:09:21.994Z,83.21
2022-11-28T17:10:34.795Z,83.17
2022-11-28T17:11:58.392Z,83.18
2022-11-28T17:13:05.377Z,83.31
2022-11-28T17:14:26.650Z,83.24
2022-11-28T17:15:36.416Z,83.25
2022-11-28T17:16:44.197Z,83.48
2022-11-28T17:17:55.829Z,83.62